aviador You're here:

KORE Decoded Metar

ORANGE in MA, USA
Report Time2018-04-26 12:52:00
UTC Time2018-04-26 13:09:51
Flight Rules vfr VFR
Wind290° at 07 kt
W.Decomp.*RWY 32: 6.8 kt HW 1.8 kt LCW
RWY 01: 3.0 kt HW 6.3 kt LCW
W.Rank290° ranks 3
Current wind is below 290° avg. (8.5)
Visibility9999 m
Phenomena:Light Rain
Clouds:Overcast 046 Hf
Expected CloudBase > 400 ft AGL from Temp-Dew spread
Ceiling4,600 ft
Temp12°C (ISA -2)
Dew Point11°C (94% RH)
AAT9.8°C
QNH1003 hPa
Density Alt827 ft
Elevation538 ft
Report Wrong Elevation
Raw Report
KORE 261252Z AUTO 29007KT 10SM -RA OVC046 12/11 A2961 RMK AO2
RAB52 SLP028 P0000 T01220106=

Extra information for KORE:More info

Metar Taf Metar & Taf Last 4 Metars F.Rules Stats Wind Profile Meteogram Temp Stats Airport Information Weather charts Add Link Nearby VenuesMetar ALERT Operation Metar Decoded Social comments

AIRNAV info for KORE